createdAt,value
2023-12-18T00:01:29.406Z,55.20
2023-12-18T00:03:56.639Z,52.50
2023-12-18T00:06:23.972Z,53.70
2023-12-18T00:08:51.054Z,54.20
2023-12-18T00:11:18.049Z,47.70
2023-12-18T00:13:45.225Z,48.20
2023-12-18T00:16:13.413Z,45.30
2023-12-18T00:18:40.733Z,46.80
2023-12-18T00:21:07.828Z,51.20
2023-12-18T00:23:35.059Z,54.30
2023-12-18T00:26:02.194Z,51.40
2023-12-18T00:28:29.331Z,38.90
2023-12-18T00:30:56.700Z,38.60
2023-12-18T00:33:24.152Z,39.80
2023-12-18T00:35:51.681Z,37.70
2023-12-18T00:38:18.773Z,46.40
2023-12-18T00:40:45.842Z,48.60
2023-12-18T00:43:13.028Z,45.20
2023-12-18T00:45:40.201Z,45.70
2023-12-18T00:48:07.761Z,44.90
2023-12-18T00:50:34.943Z,45.70
2023-12-18T00:53:02.066Z,44.30
2023-12-18T00:55:29.361Z,50.60
2023-12-18T00:57:56.761Z,52.10
2023-12-18T01:00:24.190Z,52.70
2023-12-18T01:02:51.223Z,46.70
2023-12-18T01:05:18.312Z,44.30
2023-12-18T01:07:45.405Z,47.10
2023-12-18T01:10:12.627Z,51.60
2023-12-18T01:12:39.719Z,50.30
2023-12-18T01:15:07.330Z,45.90
2023-12-18T01:17:36.457Z,45.60
2023-12-18T01:20:06.281Z,40.90
2023-12-18T01:22:33.761Z,39.10
2023-12-18T01:25:01.526Z,36.90
2023-12-18T01:27:28.705Z,39.80
2023-12-18T01:29:55.964Z,37.60
2023-12-18T01:32:23.375Z,35.70
2023-12-18T01:34:50.597Z,36.60
2023-12-18T01:37:17.585Z,38.90
2023-12-18T01:39:44.805Z,37.50
2023-12-18T01:42:12.387Z,40.00
2023-12-18T01:44:39.674Z,44.90
2023-12-18T01:47:08.249Z,38.30
2023-12-18T01:49:36.644Z,34.10
2023-12-18T01:52:04.922Z,33.20
2023-12-18T01:54:32.591Z,31.10
2023-12-18T01:57:01.157Z,28.80
2023-12-18T01:59:28.909Z,28.20
2023-12-18T02:01:56.118Z,30.10
2023-12-18T02:04:23.572Z,32.10
2023-12-18T02:06:50.703Z,32.50
2023-12-18T02:09:17.923Z,33.00
2023-12-18T02:11:45.752Z,31.70
2023-12-18T02:14:13.542Z,29.30
2023-12-18T02:16:41.611Z,30.30
2023-12-18T02:19:25.889Z,27.00
2023-12-18T02:21:55.462Z,25.30
2023-12-18T02:24:23.062Z,25.40
2023-12-18T02:26:51.554Z,24.90
2023-12-18T02:29:18.785Z,25.40
2023-12-18T02:31:46.093Z,25.80
2023-12-18T02:34:13.512Z,31.30
2023-12-18T02:36:40.743Z,32.20
2023-12-18T02:39:07.991Z,32.70
2023-12-18T02:41:35.250Z,33.20
2023-12-18T02:44:02.778Z,32.80
2023-12-18T02:46:29.892Z,31.70
2023-12-18T02:48:56.891Z,30.60
2023-12-18T02:51:24.075Z,32.40
2023-12-18T02:53:51.345Z,30.80
2023-12-18T02:56:18.524Z,27.00
2023-12-18T02:58:45.778Z,27.30
2023-12-18T03:01:13.039Z,25.60
2023-12-18T03:03:40.162Z,25.60
2023-12-18T03:06:07.452Z,23.90
2023-12-18T03:08:35.101Z,24.40
2023-12-18T03:11:02.997Z,22.70
2023-12-18T03:13:30.229Z,26.70
2023-12-18T03:15:58.392Z,35.30
2023-12-18T03:18:25.725Z,36.60
2023-12-18T03:20:52.860Z,36.10
2023-12-18T03:23:20.000Z,31.20
2023-12-18T03:25:47.426Z,30.80
2023-12-18T03:28:16.735Z,28.40
2023-12-18T03:30:44.685Z,28.30
2023-12-18T03:33:12.268Z,26.20
2023-12-18T03:35:39.362Z,24.80
2023-12-18T03:38:06.716Z,23.60
2023-12-18T03:40:33.896Z,24.30
2023-12-18T03:43:01.310Z,23.50
2023-12-18T03:45:28.376Z,24.80
2023-12-18T03:47:55.464Z,23.90
2023-12-18T03:50:22.478Z,23.80
2023-12-18T03:52:49.617Z,23.40
2023-12-18T03:55:17.260Z,22.70
2023-12-18T03:57:44.759Z,21.50
2023-12-18T04:00:12.754Z,20.10
2023-12-18T04:02:40.041Z,21.90
2023-12-18T04:05:07.711Z,21.90
2023-12-18T04:07:34.909Z,22.30
2023-12-18T04:10:02.041Z,21.10
2023-12-18T04:12:29.292Z,20.70
2023-12-18T04:14:56.315Z,22.80
2023-12-18T04:17:23.768Z,23.30
2023-12-18T04:19:51.341Z,22.00
2023-12-18T04:22:18.543Z,22.90
2023-12-18T04:24:45.722Z,23.10
2023-12-18T04:27:12.950Z,22.10
2023-12-18T04:29:40.212Z,21.40
2023-12-18T04:32:07.588Z,19.60
2023-12-18T04:34:35.377Z,20.80
2023-12-18T04:37:04.042Z,20.60
2023-12-18T04:39:33.564Z,23.30
2023-12-18T04:42:00.773Z,30.00
2023-12-18T04:44:29.028Z,34.10
2023-12-18T04:46:56.677Z,37.60
2023-12-18T04:49:25.194Z,38.20
2023-12-18T04:51:52.515Z,38.00
2023-12-18T04:54:19.759Z,34.90
2023-12-18T04:56:47.114Z,32.60
2023-12-18T04:59:14.882Z,31.30
2023-12-18T05:01:41.930Z,28.30
2023-12-18T05:04:09.304Z,26.10
2023-12-18T05:06:36.494Z,25.50
2023-12-18T05:09:03.826Z,24.80
2023-12-18T05:11:31.228Z,23.30
2023-12-18T05:13:58.248Z,23.60
2023-12-18T05:16:25.531Z,25.50
2023-12-18T05:18:54.301Z,25.00
2023-12-18T05:21:21.459Z,25.90
2023-12-18T05:23:50.373Z,28.50
2023-12-18T05:26:17.785Z,27.30
2023-12-18T05:28:44.827Z,28.30
2023-12-18T05:31:12.808Z,26.40
2023-12-18T05:33:40.748Z,31.20
2023-12-18T05:36:08.324Z,32.00
2023-12-18T05:38:35.606Z,31.80
2023-12-18T05:41:02.781Z,28.70
2023-12-18T05:43:29.814Z,25.70
2023-12-18T05:45:57.225Z,28.20
2023-12-18T05:48:24.722Z,32.70
2023-12-18T05:50:52.114Z,33.50
2023-12-18T05:53:19.376Z,29.60
2023-12-18T05:55:47.235Z,31.80
2023-12-18T05:58:14.432Z,31.80
2023-12-18T06:00:41.745Z,33.60
2023-12-18T06:03:08.983Z,32.90
2023-12-18T06:05:36.371Z,32.80
2023-12-18T06:08:04.540Z,29.10
2023-12-18T06:10:31.699Z,25.80
2023-12-18T06:12:59.141Z,27.00
2023-12-18T06:15:26.402Z,29.30
2023-12-18T06:17:53.545Z,29.90
2023-12-18T06:20:20.819Z,28.90
2023-12-18T06:22:47.985Z,28.10
2023-12-18T06:25:15.463Z,28.80
2023-12-18T06:27:45.106Z,29.30
2023-12-18T06:30:14.274Z,27.00
2023-12-18T06:32:42.392Z,26.60
2023-12-18T06:35:09.819Z,28.10
2023-12-18T06:37:37.026Z,27.80
2023-12-18T06:40:04.679Z,29.40
2023-12-18T06:42:31.688Z,31.40
2023-12-18T06:44:58.932Z,29.90
2023-12-18T06:47:26.312Z,31.00
2023-12-18T06:49:53.611Z,31.30
2023-12-18T06:52:20.710Z,49.00
2023-12-18T06:54:47.961Z,40.40
2023-12-18T06:57:16.979Z,37.00
2023-12-18T06:59:44.544Z,34.80
2023-12-18T07:02:11.887Z,35.20
2023-12-18T07:04:39.568Z,34.50
2023-12-18T07:07:08.146Z,35.40
2023-12-18T07:09:35.460Z,34.80
2023-12-18T07:12:03.184Z,38.80
2023-12-18T07:14:30.435Z,58.50
2023-12-18T07:16:57.424Z,59.60
2023-12-18T07:19:24.565Z,53.50
2023-12-18T07:21:51.912Z,46.70
2023-12-18T07:24:19.178Z,54.30
2023-12-18T07:26:46.314Z,52.40
2023-12-18T07:29:13.871Z,44.90
2023-12-18T07:31:41.377Z,45.70
2023-12-18T07:34:08.804Z,48.10
2023-12-18T07:36:40.051Z,46.00
2023-12-18T07:39:08.213Z,46.70
2023-12-18T07:41:35.441Z,47.70
2023-12-18T07:44:03.659Z,43.00
2023-12-18T07:46:30.932Z,44.20
2023-12-18T07:48:58.351Z,41.80
2023-12-18T07:51:25.657Z,43.00
2023-12-18T07:53:52.898Z,44.60
2023-12-18T07:56:20.047Z,46.90
2023-12-18T07:58:47.269Z,44.80
2023-12-18T08:01:20.467Z,42.00
2023-12-18T08:03:48.853Z,41.40
2023-12-18T08:06:16.095Z,39.40
2023-12-18T08:08:43.604Z,41.50
2023-12-18T08:11:10.967Z,43.70
2023-12-18T08:13:42.122Z,41.90
2023-12-18T08:16:11.830Z,43.70
2023-12-18T08:18:39.220Z,44.90
2023-12-18T08:21:06.490Z,40.20
2023-12-18T08:23:33.828Z,35.80
2023-12-18T08:26:01.173Z,39.20
2023-12-18T08:28:28.253Z,37.20
2023-12-18T08:30:55.376Z,25.40
2023-12-18T08:33:22.559Z,25.90
2023-12-18T08:35:50.709Z,23.10
2023-12-18T08:38:17.773Z,19.70
2023-12-18T08:40:46.348Z,20.70
2023-12-18T08:43:13.511Z,18.10
2023-12-18T08:45:41.353Z,17.40
2023-12-18T08:48:09.123Z,17.70
2023-12-18T08:50:36.476Z,15.10
2023-12-18T08:53:04.083Z,16.40
2023-12-18T08:55:32.826Z,15.90
2023-12-18T08:57:59.919Z,15.20
2023-12-18T09:00:27.539Z,15.60
2023-12-18T09:02:55.563Z,15.50
2023-12-18T09:05:22.851Z,17.40
2023-12-18T09:07:50.096Z,15.50
2023-12-18T09:10:18.868Z,13.40
2023-12-18T09:12:46.032Z,15.70
2023-12-18T09:15:15.899Z,14.50
2023-12-18T09:17:44.256Z,15.10
2023-12-18T09:20:11.916Z,14.20
2023-12-18T09:22:39.487Z,14.30
2023-12-18T09:25:07.069Z,15.10
2023-12-18T09:27:34.304Z,14.60
2023-12-18T09:30:01.846Z,14.40
2023-12-18T09:32:29.502Z,13.50
2023-12-18T09:34:56.944Z,14.50
2023-12-18T09:37:26.007Z,14.90
2023-12-18T09:39:53.376Z,14.50
2023-12-18T09:42:22.016Z,14.70
2023-12-18T09:44:50.497Z,16.80
2023-12-18T09:47:17.957Z,13.60
2023-12-18T09:49:45.988Z,13.80
2023-12-18T09:52:17.867Z,12.70
2023-12-18T09:54:46.842Z,11.70
2023-12-18T09:57:18.587Z,11.20
2023-12-18T09:59:46.309Z,11.20
2023-12-18T10:02:14.516Z,12.30
2023-12-18T10:04:43.115Z,11.50
2023-12-18T10:07:10.549Z,11.10
2023-12-18T10:09:37.960Z,11.20
2023-12-18T10:12:05.799Z,11.60
2023-12-18T10:14:34.641Z,10.70
2023-12-18T10:17:01.956Z,11.90
2023-12-18T10:19:29.400Z,12.20
2023-12-18T10:21:56.637Z,12.70
2023-12-18T10:24:23.852Z,11.40
2023-12-18T10:26:51.202Z,11.40
2023-12-18T10:29:18.759Z,11.30
2023-12-18T10:31:46.299Z,13.00
2023-12-18T10:34:18.131Z,13.20
2023-12-18T10:36:46.724Z,12.90
2023-12-18T10:39:19.493Z,12.40
2023-12-18T10:41:53.664Z,13.00
2023-12-18T10:44:23.946Z,13.30
2023-12-18T10:46:52.542Z,13.50
2023-12-18T10:49:21.452Z,12.20
2023-12-18T10:51:52.386Z,13.30
2023-12-18T10:54:20.694Z,14.00
2023-12-18T10:56:49.386Z,13.70
2023-12-18T10:59:19.517Z,12.30
2023-12-18T11:01:47.755Z,12.00
2023-12-18T11:04:17.265Z,11.30
2023-12-18T11:06:47.937Z,11.30
2023-12-18T11:09:15.175Z,11.30
2023-12-18T11:11:42.769Z,11.20
2023-12-18T11:14:18.414Z,11.10
2023-12-18T11:16:54.780Z,12.00
2023-12-18T11:19:46.319Z,11.90
2023-12-18T11:22:17.060Z,13.50
2023-12-18T11:24:46.979Z,19.10
2023-12-18T11:27:18.022Z,14.80
2023-12-18T11:29:49.017Z,18.90
2023-12-18T11:32:43.229Z,22.90
2023-12-18T11:35:12.437Z,15.70
2023-12-18T11:37:53.797Z,14.50
2023-12-18T11:40:31.803Z,13.60
2023-12-18T11:42:59.931Z,12.80
2023-12-18T11:45:28.221Z,13.90
2023-12-18T11:47:58.756Z,11.30
2023-12-18T11:50:27.721Z,13.10
2023-12-18T11:52:56.072Z,11.80
2023-12-18T11:55:42.199Z,12.10
2023-12-18T11:58:09.830Z,10.70
2023-12-18T12:00:38.970Z,9.00
2023-12-18T12:03:06.492Z,9.50
2023-12-18T12:05:34.175Z,8.80
2023-12-18T12:08:01.941Z,9.20
2023-12-18T12:10:29.207Z,10.30
2023-12-18T12:12:58.439Z,12.10
2023-12-18T12:15:26.085Z,10.60
2023-12-18T12:18:06.127Z,10.50
2023-12-18T12:20:34.273Z,10.80
2023-12-18T12:23:01.398Z,9.60
2023-12-18T12:25:29.100Z,9.70
2023-12-18T12:27:56.478Z,9.40
2023-12-18T12:30:24.203Z,10.40
2023-12-18T12:32:53.498Z,10.80
2023-12-18T12:35:21.108Z,11.30
2023-12-18T12:37:48.876Z,11.00
2023-12-18T12:40:16.234Z,10.20
2023-12-18T12:42:44.185Z,9.20
2023-12-18T12:45:11.906Z,11.60
2023-12-18T12:47:40.545Z,11.40
2023-12-18T12:50:09.058Z,9.60
2023-12-18T12:52:38.230Z,11.00
2023-12-18T12:55:06.538Z,9.50
2023-12-18T12:57:34.057Z,10.40
2023-12-18T13:00:01.823Z,10.70
2023-12-18T13:02:29.605Z,11.30
2023-12-18T13:04:57.232Z,10.90
2023-12-18T13:07:24.774Z,9.20
2023-12-18T13:09:52.866Z,9.80
2023-12-18T13:12:20.534Z,9.80
2023-12-18T13:14:50.056Z,9.60
2023-12-18T13:17:17.388Z,9.50
2023-12-18T13:19:44.805Z,8.90
2023-12-18T13:22:12.332Z,8.50
2023-12-18T13:24:39.654Z,8.90
2023-12-18T13:27:07.009Z,8.90
2023-12-18T13:29:34.494Z,7.90
2023-12-18T13:32:04.651Z,8.50
2023-12-18T13:34:32.912Z,7.90
2023-12-18T13:37:02.098Z,7.90
2023-12-18T13:39:29.717Z,7.50
2023-12-18T13:42:00.442Z,7.30
2023-12-18T13:44:29.391Z,7.30
2023-12-18T13:46:56.842Z,7.60
2023-12-18T13:49:24.195Z,6.20
2023-12-18T13:51:51.741Z,5.80
2023-12-18T13:54:22.268Z,5.70
2023-12-18T13:56:49.722Z,4.50
2023-12-18T13:59:16.852Z,5.00
2023-12-18T14:01:45.128Z,8.70
2023-12-18T14:04:12.824Z,5.90
2023-12-18T14:06:40.606Z,5.20
2023-12-18T14:09:10.327Z,5.20
2023-12-18T14:11:37.539Z,5.60
2023-12-18T14:14:04.760Z,5.30
2023-12-18T14:16:32.049Z,5.60
2023-12-18T14:18:59.656Z,4.80
2023-12-18T14:21:27.319Z,4.90
2023-12-18T14:23:54.710Z,5.80
2023-12-18T14:26:22.314Z,5.90
2023-12-18T14:28:49.846Z,5.30
2023-12-18T14:31:17.593Z,5.80
2023-12-18T14:33:45.021Z,10.10
2023-12-18T14:36:12.792Z,13.70
2023-12-18T14:38:40.031Z,18.20
2023-12-18T14:41:08.137Z,18.90
2023-12-18T14:43:35.869Z,21.30
2023-12-18T14:46:04.627Z,20.90
2023-12-18T14:48:35.724Z,22.60
2023-12-18T14:51:03.762Z,19.50
2023-12-18T14:53:30.946Z,17.60
2023-12-18T14:55:58.002Z,17.40
2023-12-18T14:58:25.505Z,17.40
2023-12-18T15:00:53.018Z,16.00
2023-12-18T15:03:20.734Z,14.20
2023-12-18T15:05:49.899Z,15.20
2023-12-18T15:08:17.776Z,20.40
2023-12-18T15:10:45.509Z,20.70
2023-12-18T15:13:13.376Z,23.10
2023-12-18T15:15:41.173Z,24.40
2023-12-18T15:18:08.732Z,21.90
2023-12-18T15:20:35.953Z,20.80
2023-12-18T15:23:03.519Z,21.50
2023-12-18T15:25:30.741Z,23.80
2023-12-18T15:27:58.208Z,24.90
2023-12-18T15:30:25.741Z,26.20
2023-12-18T15:32:53.292Z,25.50
2023-12-18T15:35:21.236Z,31.20
2023-12-18T15:37:48.870Z,32.80
2023-12-18T15:40:16.804Z,33.80
2023-12-18T15:42:44.275Z,33.30
2023-12-18T15:45:12.040Z,35.50
2023-12-18T15:47:39.713Z,30.60
2023-12-18T15:50:08.796Z,29.30
2023-12-18T15:52:36.405Z,31.00
2023-12-18T15:55:04.308Z,35.00
2023-12-18T15:57:32.066Z,35.70
2023-12-18T15:59:59.581Z,28.50
2023-12-18T16:02:27.165Z,31.80
2023-12-18T16:04:55.039Z,31.00
2023-12-18T16:07:22.581Z,39.20
2023-12-18T16:09:50.274Z,38.40
2023-12-18T16:12:19.231Z,40.30
2023-12-18T16:14:46.521Z,41.60
2023-12-18T16:17:13.981Z,47.50
2023-12-18T16:19:41.320Z,41.20
2023-12-18T16:22:08.652Z,42.80
2023-12-18T16:24:36.706Z,39.90
2023-12-18T16:27:07.121Z,37.70
2023-12-18T16:29:39.269Z,37.70
2023-12-18T16:32:08.248Z,35.10
2023-12-18T16:34:40.514Z,35.70
2023-12-18T16:37:09.114Z,36.20
2023-12-18T16:39:43.836Z,47.10
2023-12-18T16:42:12.325Z,40.40
2023-12-18T16:44:40.420Z,30.90
2023-12-18T16:47:08.290Z,33.80
2023-12-18T16:49:35.803Z,27.90
2023-12-18T16:52:03.316Z,28.70
2023-12-18T16:54:30.708Z,26.70
2023-12-18T16:56:58.034Z,24.70
2023-12-18T16:59:25.670Z,26.10
2023-12-18T17:01:53.116Z,28.10
2023-12-18T17:04:21.299Z,29.90
2023-12-18T17:06:48.728Z,35.10
2023-12-18T17:09:16.918Z,34.50
2023-12-18T17:11:44.272Z,35.50
2023-12-18T17:14:13.165Z,35.50
2023-12-18T17:16:43.166Z,33.80
2023-12-18T17:19:10.656Z,30.60
2023-12-18T17:21:38.208Z,31.10
2023-12-18T17:24:08.056Z,30.50
2023-12-18T17:26:35.266Z,29.10
2023-12-18T17:29:02.630Z,28.40
2023-12-18T17:31:30.505Z,36.90
2023-12-18T17:33:58.341Z,32.40
2023-12-18T17:36:27.377Z,30.70
2023-12-18T17:38:55.660Z,31.90
2023-12-18T17:41:24.039Z,46.60
2023-12-18T17:43:53.441Z,54.70
2023-12-18T17:46:20.901Z,45.70
2023-12-18T17:48:48.366Z,37.40
2023-12-18T17:51:16.496Z,34.30
2023-12-18T17:53:43.759Z,34.00
2023-12-18T17:56:11.054Z,29.40
2023-12-18T17:58:38.780Z,29.40
2023-12-18T18:01:06.208Z,29.90
2023-12-18T18:03:34.918Z,30.30
2023-12-18T18:06:02.474Z,18.80
2023-12-18T18:08:30.311Z,52.90
2023-12-18T18:10:57.895Z,39.00
2023-12-18T18:13:25.148Z,42.60
2023-12-18T18:15:55.195Z,35.70
2023-12-18T18:18:22.815Z,37.70
2023-12-18T18:20:50.284Z,40.70
2023-12-18T18:23:17.820Z,30.30
2023-12-18T18:25:45.210Z,26.30
2023-12-18T18:28:12.793Z,27.70
2023-12-18T18:30:42.774Z,26.90
2023-12-18T18:33:12.259Z,29.90
2023-12-18T18:35:39.901Z,40.50
2023-12-18T18:38:07.343Z,43.70
2023-12-18T18:40:35.120Z,48.70
2023-12-18T18:43:02.467Z,40.30
2023-12-18T18:45:29.725Z,35.50
2023-12-18T18:47:57.079Z,34.20
2023-12-18T18:50:24.443Z,30.00
2023-12-18T18:52:51.803Z,44.00
2023-12-18T18:55:19.275Z,35.80
2023-12-18T18:57:48.568Z,55.10
2023-12-18T19:00:17.046Z,21.30
2023-12-18T19:02:44.244Z,52.10
2023-12-18T19:05:11.666Z,36.20
2023-12-18T19:07:38.950Z,33.90
2023-12-18T19:10:07.141Z,51.00
2023-12-18T19:12:38.365Z,27.30
2023-12-18T19:15:06.394Z,50.10
2023-12-18T19:17:33.427Z,46.10
2023-12-18T19:20:00.634Z,37.20
2023-12-18T19:22:29.330Z,35.90
2023-12-18T19:24:56.814Z,30.30
2023-12-18T19:27:24.159Z,34.40
2023-12-18T19:29:51.211Z,31.90
2023-12-18T19:32:18.877Z,28.40
2023-12-18T19:34:46.650Z,18.50
2023-12-18T19:37:13.997Z,33.00
2023-12-18T19:39:41.625Z,37.40
2023-12-18T19:42:08.827Z,72.80
2023-12-18T19:44:36.179Z,45.60
2023-12-18T19:47:03.955Z,17.10
2023-12-18T19:49:31.241Z,32.80
2023-12-18T19:51:58.733Z,30.70
2023-12-18T19:54:25.882Z,45.60
2023-12-18T19:56:53.090Z,52.40
2023-12-18T19:59:20.447Z,48.10
2023-12-18T20:01:47.576Z,55.30
2023-12-18T20:04:16.394Z,47.00
2023-12-18T20:06:45.685Z,37.50
2023-12-18T20:09:13.016Z,35.00
2023-12-18T20:11:40.071Z,35.10
2023-12-18T20:14:07.913Z,36.00
2023-12-18T20:16:36.372Z,35.30
2023-12-18T20:19:05.088Z,37.70
2023-12-18T20:21:32.862Z,53.20
2023-12-18T20:23:59.956Z,74.40
2023-12-18T20:26:27.086Z,64.50
2023-12-18T20:28:54.593Z,38.80
2023-12-18T20:31:22.362Z,39.40
2023-12-18T20:33:50.103Z,51.90
2023-12-18T20:36:17.577Z,45.50
2023-12-18T20:38:46.388Z,37.10
2023-12-18T20:41:13.865Z,34.90
2023-12-18T20:43:41.012Z,34.30
2023-12-18T20:46:08.342Z,38.20
2023-12-18T20:48:35.596Z,38.00
2023-12-18T20:51:03.047Z,34.50
2023-12-18T20:53:30.166Z,40.10
2023-12-18T20:55:57.167Z,38.90
2023-12-18T20:58:24.801Z,38.70
2023-12-18T21:00:52.044Z,43.90
2023-12-18T21:03:19.274Z,46.00
2023-12-18T21:05:46.773Z,43.70
2023-12-18T21:08:13.913Z,39.70
2023-12-18T21:10:41.422Z,38.60
2023-12-18T21:13:09.435Z,38.00
2023-12-18T21:15:36.851Z,41.50
2023-12-18T21:18:04.300Z,37.00
2023-12-18T21:20:31.456Z,34.10
2023-12-18T21:22:58.608Z,29.50
2023-12-18T21:25:25.958Z,29.10
2023-12-18T21:27:53.225Z,33.00
2023-12-18T21:30:20.430Z,31.80
2023-12-18T21:32:47.848Z,31.60
2023-12-18T21:35:15.469Z,34.70
2023-12-18T21:37:42.940Z,38.10
2023-12-18T21:40:10.607Z,35.90
2023-12-18T21:42:37.808Z,33.00
2023-12-18T21:45:05.445Z,29.50
2023-12-18T21:47:32.607Z,26.80
2023-12-18T21:50:00.325Z,29.70
2023-12-18T21:52:27.975Z,27.00
2023-12-18T21:54:56.324Z,25.90
2023-12-18T21:57:23.484Z,47.30
2023-12-18T21:59:50.916Z,36.80
2023-12-18T22:02:17.928Z,35.00
2023-12-18T22:04:45.107Z,32.00
2023-12-18T22:07:12.313Z,27.80
2023-12-18T22:09:40.170Z,26.30
2023-12-18T22:12:08.039Z,26.30
2023-12-18T22:14:35.116Z,24.00
2023-12-18T22:17:02.287Z,25.00
2023-12-18T22:19:29.464Z,22.60
2023-12-18T22:21:56.936Z,25.90
2023-12-18T22:24:24.173Z,25.60
2023-12-18T22:26:52.645Z,23.40
2023-12-18T22:29:19.745Z,25.80
2023-12-18T22:31:47.269Z,25.40
2023-12-18T22:34:14.443Z,26.80
2023-12-18T22:36:41.575Z,25.70
2023-12-18T22:39:11.863Z,24.90
2023-12-18T22:41:41.157Z,24.80
2023-12-18T22:44:08.695Z,23.20
2023-12-18T22:46:37.656Z,25.00
2023-12-18T22:49:04.748Z,25.40
2023-12-18T22:51:32.267Z,23.50
2023-12-18T22:53:59.322Z,25.50
2023-12-18T22:56:26.571Z,29.20
2023-12-18T22:58:53.969Z,30.10
2023-12-18T23:01:22.406Z,24.90
2023-12-18T23:03:49.768Z,23.80
2023-12-18T23:06:17.003Z,23.70
2023-12-18T23:08:45.404Z,24.00
2023-12-18T23:11:12.641Z,23.20
2023-12-18T23:13:41.444Z,22.10
2023-12-18T23:16:08.421Z,24.00
2023-12-18T23:18:35.465Z,23.70
2023-12-18T23:21:06.191Z,23.20
2023-12-18T23:23:33.287Z,24.40
2023-12-18T23:26:00.647Z,24.30
2023-12-18T23:28:28.915Z,23.20
2023-12-18T23:30:56.048Z,23.40
2023-12-18T23:33:28.356Z,28.30
2023-12-18T23:35:59.277Z,31.60
2023-12-18T23:38:26.613Z,32.40
2023-12-18T23:40:54.047Z,38.70
2023-12-18T23:43:21.118Z,35.20
2023-12-18T23:45:48.209Z,34.80
2023-12-18T23:48:15.430Z,31.60
2023-12-18T23:50:44.693Z,32.50
2023-12-18T23:53:13.182Z,32.80
2023-12-18T23:55:40.514Z,30.90
2023-12-18T23:58:07.864Z,30.10
